Time;durP1;ratioP1;P1;durP2;ratioP2;P2;SDS_P1;SDS_P2;PMS_P1;PMS_P2;Temp;Humidity;BMP_temperature;BMP_pressure;BME280_temperature;BME280_humidity;BME280_pressure;Samples;Min_cycle;Max_cycle;Signal;HPM_P1;HPM_P2
2024/04/18 00:02:11;;;;;;;;;4.00;2.00;;;;;;;;5455580;26;11356;-92
2024/04/18 00:04:37;;;;;;;;;5.50;3.00;;;;;;;;5454123;26;11567;-87
2024/04/18 00:07:09;;;;;;;;;2.00;2.00;;;;;;;;5452849;26;11563;-89
2024/04/18 00:09:35;;;;;;;;;3.75;3.75;;;;;;;;5452325;26;11557;-86
2024/04/18 00:12:05;;;;;;;;;3.50;3.50;;;;;;;;5450888;26;11701;-90
2024/04/18 00:14:31;;;;;;;;;2.00;2.00;;;;;;;;5449530;26;11564;-86
2024/04/18 00:17:00;;;;;;;;;4.25;4.25;;;;;;;;5453245;26;11573;-91
2024/04/18 00:19:26;;;;;;;;;4.50;4.50;;;;;;;;5453480;26;11569;-88
2024/04/18 00:21:55;;;;;;;;;4.00;4.00;;;;;;;;5453783;26;11641;-89
2024/04/18 00:24:24;;;;;;;;;4.00;4.00;;;;;;;;5449314;26;11542;-85
2024/04/18 00:26:53;;;;;;;;;4.00;4.00;;;;;;;;5453717;26;11557;-85
2024/04/18 00:29:19;;;;;;;;;4.00;3.00;;;;;;;;5451055;26;11594;-86
2024/04/18 00:31:48;;;;;;;;;3.75;3.75;;;;;;;;5450558;26;11402;-86
2024/04/18 00:34:14;;;;;;;;;3.00;3.00;;;;;;;;5439030;26;11619;-84
2024/04/18 00:36:45;;;;;;;;;3.00;3.00;;;;;;;;5443069;26;11489;-86
2024/04/18 00:39:12;;;;;;;;;6.50;6.50;;;;;;;;5450679;26;11582;-86
2024/04/18 00:41:43;;;;;;;;;6.00;4.00;;;;;;;;5452374;26;12297;-82
2024/04/18 00:44:10;;;;;;;;;3.25;3.25;;;;;;;;5451666;26;11601;-84
2024/04/18 00:46:41;;;;;;;;;3.00;3.00;;;;;;;;5451510;26;11545;-84
2024/04/18 00:49:08;;;;;;;;;3.00;3.00;;;;;;;;5451441;26;11652;-85
2024/04/18 00:51:37;;;;;;;;;3.00;3.00;;;;;;;;5452288;26;11552;-87
2024/04/18 00:54:04;;;;;;;;;2.00;2.00;;;;;;;;5475281;26;11462;-85
2024/04/18 00:56:33;;;;;;;;;2.25;2.25;;;;;;;;5474433;26;11462;-86
2024/04/18 00:59:03;;;;;;;;;2.50;2.00;;;;;;;;5468550;26;11521;-88
2024/04/18 01:01:32;;;;;;;;;2.00;2.00;;;;;;;;5452955;26;11277;-84
2024/04/18 01:03:58;;;;;;;;;2.25;2.25;;;;;;;;5454247;26;11503;-87
2024/04/18 01:06:28;;;;;;;;;3.00;2.00;;;;;;;;5453327;26;11544;-88
2024/04/18 01:08:54;;;;;;;;;3.00;3.00;;;;;;;;5451234;26;12354;-87
2024/04/18 01:11:23;;;;;;;;;2.50;2.50;;;;;;;;5450384;26;11539;-85
2024/04/18 01:13:49;;;;;;;;;3.00;2.00;;;;;;;;5428686;26;11567;-87
2024/04/18 01:16:22;;;;;;;;;3.00;3.00;;;;;;;;5452668;26;11470;-88
2024/04/18 01:18:49;;;;;;;;;3.25;2.00;;;;;;;;5451020;26;12280;-86
2024/04/18 01:21:18;;;;;;;;;2.00;2.00;;;;;;;;5452281;26;11536;-88
2024/04/18 01:23:44;;;;;;;;;3.00;2.00;;;;;;;;5450594;26;11536;-90
2024/04/18 01:26:18;;;;;;;;;5.00;3.00;;;;;;;;5454341;26;11515;-86
2024/04/18 01:28:44;;;;;;;;;3.00;3.00;;;;;;;;5456355;26;11480;-90
2024/04/18 01:31:13;;;;;;;;;2.00;2.00;;;;;;;;5450888;26;11280;-91
2024/04/18 01:33:39;;;;;;;;;2.00;2.00;;;;;;;;5453214;26;11556;-91
2024/04/18 01:36:11;;;;;;;;;4.00;2.00;;;;;;;;5450341;26;11590;-89
2024/04/18 01:38:38;;;;;;;;;2.00;2.00;;;;;;;;5456664;26;11479;-91
2024/04/18 01:41:07;;;;;;;;;2.00;2.00;;;;;;;;5454088;26;11520;-89
2024/04/18 01:43:35;;;;;;;;;3.00;3.00;;;;;;;;5454964;26;11518;-89
2024/04/18 01:46:05;;;;;;;;;2.75;2.75;;;;;;;;5455399;26;11518;-87
2024/04/18 01:48:31;;;;;;;;;3.50;2.50;;;;;;;;5458022;26;11471;-91
2024/04/18 01:51:02;;;;;;;;;2.50;2.50;;;;;;;;5452230;26;11511;-91
2024/04/18 01:53:29;;;;;;;;;4.00;4.00;;;;;;;;5478776;26;11602;-91
2024/04/18 01:55:57;;;;;;;;;3.00;3.00;;;;;;;;5477443;26;11574;-82
2024/04/18 01:58:24;;;;;;;;;4.50;3.00;;;;;;;;5451446;26;11472;-89
2024/04/18 02:00:55;;;;;;;;;5.00;5.00;;;;;;;;5468932;26;11283;-91
2024/04/18 02:03:21;;;;;;;;;5.25;5.25;;;;;;;;5444112;26;11512;-89
2024/04/18 02:05:50;;;;;;;;;6.25;6.25;;;;;;;;5465828;26;11552;-86
2024/04/18 02:08:21;;;;;;;;;6.00;6.00;;;;;;;;5450295;26;11482;-90
2024/04/18 02:10:52;;;;;;;;;8.50;6.50;;;;;;;;5465571;26;11606;-92
2024/04/18 02:13:21;;;;;;;;;5.00;5.00;;;;;;;;5459242;26;11491;-92
2024/04/18 02:15:50;;;;;;;;;8.75;5.00;;;;;;;;5461772;26;11490;-91
2024/04/18 02:18:19;;;;;;;;;4.00;4.00;;;;;;;;5459214;26;11498;-87
2024/04/18 02:20:51;;;;;;;;;5.00;4.00;;;;;;;;5462111;26;12320;-91
2024/04/18 02:23:17;;;;;;;;;5.00;5.00;;;;;;;;5463248;26;11490;-89
2024/04/18 02:25:46;;;;;;;;;3.50;3.50;;;;;;;;5464155;26;11489;-89
2024/04/18 02:28:17;;;;;;;;;5.00;5.00;;;;;;;;5460024;26;11495;-90
2024/04/18 02:30:46;;;;;;;;;6.50;6.50;;;;;;;;5454993;26;11298;-93
2024/04/18 02:33:14;;;;;;;;;3.75;3.75;;;;;;;;5469439;26;11467;-92
2024/04/18 02:35:45;;;;;;;;;8.50;6.75;;;;;;;;5462256;26;11509;-89
2024/04/18 02:38:14;;;;;;;;;4.25;4.25;;;;;;;;5469491;26;11611;-91
2024/04/18 02:40:40;;;;;;;;;4.00;4.00;;;;;;;;5452565;26;11545;-93
2024/04/18 02:43:09;;;;;;;;;6.00;6.00;;;;;;;;5469714;26;11471;-88
2024/04/18 02:45:35;;;;;;;;;7.00;7.00;;;;;;;;5461689;26;11495;-91
2024/04/18 02:48:04;;;;;;;;;6.50;6.50;;;;;;;;5461347;26;12302;-92
2024/04/18 02:50:31;;;;;;;;;6.50;6.50;;;;;;;;5461388;26;11546;-93
2024/04/18 02:53:05;;;;;;;;;6.00;6.00;;;;;;;;5453875;26;11583;-92
2024/04/18 02:55:31;;;;;;;;;7.50;7.50;;;;;;;;5453054;26;11551;-94
2024/04/18 02:58:01;;;;;;;;;6.00;6.00;;;;;;;;5453952;26;11443;-91
2024/04/18 03:00:27;;;;;;;;;7.00;4.00;;;;;;;;5453612;26;11189;-93
2024/04/18 03:02:56;;;;;;;;;7.00;7.00;;;;;;;;5454658;26;11671;-91
2024/04/18 03:05:24;;;;;;;;;6.75;6.75;;;;;;;;5453706;26;11494;-91
2024/04/18 03:07:57;;;;;;;;;6.75;6.00;;;;;;;;5453588;26;11616;-86
2024/04/18 03:10:26;;;;;;;;;8.50;8.50;;;;;;;;5453415;26;11551;-91
2024/04/18 03:12:55;;;;;;;;;6.75;6.75;;;;;;;;5454504;26;11552;-91
2024/04/18 03:15:22;;;;;;;;;6.25;6.25;;;;;;;;5452960;26;11568;-92
2024/04/18 03:17:53;;;;;;;;;4.50;4.50;;;;;;;;5452823;26;11595;-90
2024/04/18 03:20:20;;;;;;;;;4.00;4.00;;;;;;;;5454239;26;11563;-90
2024/04/18 03:22:49;;;;;;;;;7.25;7.25;;;;;;;;5454414;26;11569;-93
2024/04/18 03:25:15;;;;;;;;;7.75;7.75;;;;;;;;5455086;26;11654;-92
2024/04/18 03:27:47;;;;;;;;;7.50;7.00;;;;;;;;5454468;26;11570;-89
2024/04/18 03:30:16;;;;;;;;;7.00;7.00;;;;;;;;5455687;26;11596;-88
2024/04/18 03:32:45;;;;;;;;;5.00;5.00;;;;;;;;5458690;26;11535;-92
2024/04/18 03:35:14;;;;;;;;;5.25;5.25;;;;;;;;5461682;26;11581;-94
2024/04/18 03:37:43;;;;;;;;;7.25;7.25;;;;;;;;5495557;26;11605;-93
2024/04/18 03:40:12;;;;;;;;;8.00;5.50;;;;;;;;5487753;26;11653;-92
2024/04/18 03:42:41;;;;;;;;;8.00;8.00;;;;;;;;5459560;26;11677;-92
2024/04/18 03:45:16;;;;;;;;;8.25;8.25;;;;;;;;5453906;26;11552;-91
2024/04/18 03:47:45;;;;;;;;;8.00;8.00;;;;;;;;5452436;26;11521;-92
2024/04/18 03:50:12;;;;;;;;;7.25;6.00;;;;;;;;5453187;26;11543;-84
2024/04/18 03:52:41;;;;;;;;;7.00;7.00;;;;;;;;5453420;26;11516;-90
2024/04/18 03:55:10;;;;;;;;;8.50;8.50;;;;;;;;5454338;26;11553;-93
2024/04/18 03:57:39;;;;;;;;;12.25;10.00;;;;;;;;5451756;26;11577;-90
2024/04/18 04:00:09;;;;;;;;;9.00;9.00;;;;;;;;5430390;26;11615;-88
2024/04/18 04:02:39;;;;;;;;;8.00;7.00;;;;;;;;5461087;26;11546;-90
2024/04/18 04:05:05;;;;;;;;;9.00;9.00;;;;;;;;5451221;26;11601;-91
2024/04/18 04:07:34;;;;;;;;;10.25;8.75;;;;;;;;5450319;26;11702;-92
2024/04/18 04:10:00;;;;;;;;;6.75;6.75;;;;;;;;5451718;26;11586;-92
2024/04/18 04:12:29;;;;;;;;;8.00;8.00;;;;;;;;5457185;26;11615;-88
2024/04/18 04:14:57;;;;;;;;;8.25;8.25;;;;;;;;5459833;26;11688;-91
2024/04/18 04:17:31;;;;;;;;;6.50;6.00;;;;;;;;5455730;26;11588;-88
2024/04/18 04:19:58;;;;;;;;;10.00;8.25;;;;;;;;5455954;26;11488;-86
2024/04/18 04:22:27;;;;;;;;;9.25;7.00;;;;;;;;5460104;26;11530;-91
2024/04/18 04:24:53;;;;;;;;;9.00;9.00;;;;;;;;5455506;26;11590;-92
2024/04/18 04:27:22;;;;;;;;;7.00;7.00;;;;;;;;5454421;26;11596;-93
2024/04/18 04:29:52;;;;;;;;;8.50;7.75;;;;;;;;5452295;26;11535;-92
2024/04/18 04:32:20;;;;;;;;;8.75;8.00;;;;;;;;5460037;26;11260;-92
2024/04/18 04:34:56;;;;;;;;;9.50;8.25;;;;;;;;5455343;26;11641;-94
2024/04/18 04:37:22;;;;;;;;;8.50;8.50;;;;;;;;5455923;26;11696;-87
2024/04/18 04:39:51;;;;;;;;;8.25;8.25;;;;;;;;5453096;26;11554;-92
2024/04/18 04:42:17;;;;;;;;;9.50;9.50;;;;;;;;5446843;26;11571;-93
2024/04/18 04:44:46;;;;;;;;;10.25;7.75;;;;;;;;5458967;26;11532;-92
2024/04/18 04:47:12;;;;;;;;;8.75;8.75;;;;;;;;5463936;26;11567;-92
2024/04/18 04:49:42;;;;;;;;;10.75;10.00;;;;;;;;5458332;26;11555;-93
2024/04/18 04:52:14;;;;;;;;;11.50;8.00;;;;;;;;5451792;26;11562;-82
2024/04/18 04:54:52;;;;;;;;;8.75;8.75;;;;;;;;5452087;26;11562;-89
2024/04/18 04:57:18;;;;;;;;;14.25;14.25;;;;;;;;5450633;26;11601;-94
2024/04/18 04:59:47;;;;;;;;;10.75;9.00;;;;;;;;5457396;26;11632;-92
2024/04/18 05:02:14;;;;;;;;;11.50;7.00;;;;;;;;5465155;26;11340;-91
2024/04/18 05:04:43;;;;;;;;;12.50;8.25;;;;;;;;5450348;26;11519;-86
2024/04/18 05:07:12;;;;;;;;;12.00;9.25;;;;;;;;5450237;26;12401;-93
2024/04/18 05:09:41;;;;;;;;;11.25;11.25;;;;;;;;5450711;26;11549;-76
2024/04/18 05:12:08;;;;;;;;;9.25;7.00;;;;;;;;5448392;26;11379;-77
2024/04/18 05:14:37;;;;;;;;;11.00;11.00;;;;;;;;5449687;26;12353;-79
2024/04/18 05:17:05;;;;;;;;;10.00;8.50;;;;;;;;5449152;26;11570;-79
2024/04/18 05:19:34;;;;;;;;;10.25;10.25;;;;;;;;5450569;26;11667;-81
2024/04/18 05:22:00;;;;;;;;;10.25;8.50;;;;;;;;5455289;26;11593;-78
2024/04/18 05:24:33;;;;;;;;;13.00;13.00;;;;;;;;5453388;26;11545;-78
2024/04/18 05:26:59;;;;;;;;;14.25;12.00;;;;;;;;5454779;26;11625;-76
2024/04/18 05:32:13;;;;;;;;;9.25;9.25;;;;;;;;5477078;26;12464;-79
2024/04/18 05:34:45;;;;;;;;;10.00;10.00;;;;;;;;5477949;26;11569;-77
2024/04/18 05:37:14;;;;;;;;;12.50;11.25;;;;;;;;5471572;26;11501;-78
2024/04/18 05:39:45;;;;;;;;;8.50;8.50;;;;;;;;5478010;26;11565;-78
2024/04/18 05:42:14;;;;;;;;;11.00;11.00;;;;;;;;5469506;26;11539;-80
2024/04/18 05:44:43;;;;;;;;;12.00;9.00;;;;;;;;5476112;26;11557;-77
2024/04/18 05:47:16;;;;;;;;;12.25;11.75;;;;;;;;5474619;26;11546;-78
2024/04/18 05:49:46;;;;;;;;;11.00;11.00;;;;;;;;5473832;26;11613;-79
2024/04/18 05:52:16;;;;;;;;;11.75;10.25;;;;;;;;5448110;26;11566;-78
2024/04/18 05:54:48;;;;;;;;;14.00;14.00;;;;;;;;5450114;26;11488;-79
2024/04/18 05:57:17;;;;;;;;;14.25;13.25;;;;;;;;5449080;26;11660;-78
2024/04/18 05:59:43;;;;;;;;;13.50;12.00;;;;;;;;5454159;26;11618;-78
2024/04/18 06:02:12;;;;;;;;;8.25;8.25;;;;;;;;5453483;26;11453;-78
2024/04/18 06:04:41;;;;;;;;;9.00;9.00;;;;;;;;5454186;26;11494;-77
2024/04/18 06:07:15;;;;;;;;;10.25;9.00;;;;;;;;5453167;26;11485;-78
2024/04/18 06:09:47;;;;;;;;;6.25;5.50;;;;;;;;5450367;26;11558;-78
2024/04/18 06:12:17;;;;;;;;;8.25;7.25;;;;;;;;5455562;26;11504;-81
2024/04/18 06:14:47;;;;;;;;;9.75;8.75;;;;;;;;5453651;26;11506;-78
2024/04/18 06:17:16;;;;;;;;;9.00;9.00;;;;;;;;5458190;26;11550;-78
2024/04/18 06:19:46;;;;;;;;;9.75;9.75;;;;;;;;5436944;26;11527;-78
2024/04/18 06:22:16;;;;;;;;;14.50;10.50;;;;;;;;5433399;26;11506;-78
2024/04/18 06:24:50;;;;;;;;;6.00;6.00;;;;;;;;5451842;26;11572;-79
2024/04/18 06:27:19;;;;;;;;;10.75;10.75;;;;;;;;5451911;26;12358;-78
2024/04/18 06:29:48;;;;;;;;;7.25;7.00;;;;;;;;5450209;26;11609;-77
2024/04/18 06:32:17;;;;;;;;;8.25;7.50;;;;;;;;5449486;26;11331;-78
2024/04/18 06:34:46;;;;;;;;;7.75;7.75;;;;;;;;5452849;26;11488;-78
2024/04/18 06:37:15;;;;;;;;;6.75;6.50;;;;;;;;5446974;26;11631;-79
2024/04/18 06:39:47;;;;;;;;;8.75;8.75;;;;;;;;5433525;26;11513;-79
2024/04/18 06:42:16;;;;;;;;;7.25;7.25;;;;;;;;5451218;26;11564;-80
2024/04/18 06:44:45;;;;;;;;;12.00;7.25;;;;;;;;5451808;26;11533;-80
2024/04/18 06:47:16;;;;;;;;;9.00;9.00;;;;;;;;5450918;26;11499;-80
2024/04/18 06:49:45;;;;;;;;;7.50;7.50;;;;;;;;5452776;26;11518;-82
2024/04/18 06:52:14;;;;;;;;;9.00;9.00;;;;;;;;5435150;26;11534;-79
2024/04/18 06:54:43;;;;;;;;;9.50;7.75;;;;;;;;5443405;26;11509;-78
2024/04/18 06:57:15;;;;;;;;;9.25;9.25;;;;;;;;5449909;26;11521;-79
2024/04/18 06:59:46;;;;;;;;;10.00;8.25;;;;;;;;5427106;26;11531;-79
2024/04/18 07:02:15;;;;;;;;;8.00;8.00;;;;;;;;5450292;26;12315;-80
2024/04/18 07:04:45;;;;;;;;;8.25;8.25;;;;;;;;5451773;26;12458;-82
2024/04/18 07:07:14;;;;;;;;;9.00;7.25;;;;;;;;5454014;26;11548;-80
2024/04/18 07:09:43;;;;;;;;;5.25;5.25;;;;;;;;5450544;26;11519;-82
2024/04/18 07:12:15;;;;;;;;;5.00;5.00;;;;;;;;5459947;26;11522;-81
2024/04/18 07:14:44;;;;;;;;;8.00;7.00;;;;;;;;5437857;26;11542;-83
2024/04/18 07:17:13;;;;;;;;;8.25;8.25;;;;;;;;5459558;26;11496;-82
2024/04/18 07:19:45;;;;;;;;;7.00;7.00;;;;;;;;5456446;26;11561;-80
2024/04/18 07:22:19;;;;;;;;;7.75;7.75;;;;;;;;5454414;26;11427;-79
2024/04/18 07:24:49;;;;;;;;;9.00;9.00;;;;;;;;5454998;26;11496;-78
2024/04/18 07:27:21;;;;;;;;;7.25;7.25;;;;;;;;5449773;26;11489;-79
2024/04/18 07:29:50;;;;;;;;;8.00;5.50;;;;;;;;5445963;26;11536;-77
2024/04/18 07:32:19;;;;;;;;;7.25;7.25;;;;;;;;5451195;26;11319;-77
2024/04/18 07:34:47;;;;;;;;;6.75;6.75;;;;;;;;5452517;26;11270;-79
2024/04/18 07:37:16;;;;;;;;;6.50;6.50;;;;;;;;5456856;26;11474;-78
2024/04/18 07:39:45;;;;;;;;;6.75;6.75;;;;;;;;5453289;26;11499;-79
2024/04/18 07:42:15;;;;;;;;;7.75;7.75;;;;;;;;5451703;26;11465;-78
2024/04/18 07:44:47;;;;;;;;;9.50;7.75;;;;;;;;5453385;26;11494;-79
2024/04/18 07:47:16;;;;;;;;;8.75;8.75;;;;;;;;5431927;26;11473;-78
2024/04/18 07:49:45;;;;;;;;;14.00;9.50;;;;;;;;5453466;26;11568;-78
2024/04/18 07:52:14;;;;;;;;;8.50;8.50;;;;;;;;5450769;26;11530;-78
2024/04/18 07:54:44;;;;;;;;;9.00;7.50;;;;;;;;5451995;26;11538;-79
2024/04/18 07:57:13;;;;;;;;;10.50;9.25;;;;;;;;5450229;26;11267;-79
2024/04/18 07:59:43;;;;;;;;;14.00;10.50;;;;;;;;5449849;26;11490;-78
2024/04/18 08:02:15;;;;;;;;;9.00;9.00;;;;;;;;5448302;26;11052;-78
2024/04/18 08:04:44;;;;;;;;;9.00;9.00;;;;;;;;5451214;26;11860;-79
2024/04/18 08:07:13;;;;;;;;;10.25;8.00;;;;;;;;5450801;26;11510;-79
2024/04/18 08:09:44;;;;;;;;;8.00;8.00;;;;;;;;5450995;26;11119;-78
2024/04/18 08:12:13;;;;;;;;;10.00;10.00;;;;;;;;5451450;26;10969;-80
2024/04/18 08:14:45;;;;;;;;;8.25;8.25;;;;;;;;5451342;26;11087;-78
2024/04/18 08:17:16;;;;;;;;;8.25;8.25;;;;;;;;5450637;26;10873;-78
2024/04/18 08:19:45;;;;;;;;;11.50;11.50;;;;;;;;5451435;26;10920;-78
2024/04/18 08:22:14;;;;;;;;;9.75;9.75;;;;;;;;5450462;26;10917;-79
2024/04/18 08:24:44;;;;;;;;;14.00;10.25;;;;;;;;5451666;26;10905;-80
2024/04/18 08:27:13;;;;;;;;;11.50;11.50;;;;;;;;5453323;26;10726;-78
2024/04/18 08:29:42;;;;;;;;;11.00;11.00;;;;;;;;5451239;26;10738;-78
2024/04/18 08:32:16;;;;;;;;;11.00;11.00;;;;;;;;5452402;26;10664;-78
2024/04/18 08:34:47;;;;;;;;;10.50;10.50;;;;;;;;5451466;26;10688;-82
2024/04/18 08:37:16;;;;;;;;;13.25;9.75;;;;;;;;5454331;26;10570;-78
2024/04/18 08:39:45;;;;;;;;;7.25;7.25;;;;;;;;5475457;26;10489;-78
2024/04/18 08:42:16;;;;;;;;;12.00;12.00;;;;;;;;5464175;26;10502;-81
2024/04/18 08:44:45;;;;;;;;;12.00;12.00;;;;;;;;5463740;26;11376;-79
2024/04/18 08:47:19;;;;;;;;;13.75;13.00;;;;;;;;5470366;26;10344;-79
2024/04/18 08:49:48;;;;;;;;;13.00;13.00;;;;;;;;5472826;26;10628;-81
2024/04/18 08:52:17;;;;;;;;;12.25;12.25;;;;;;;;5449721;26;10430;-79
2024/04/18 08:54:46;;;;;;;;;18.75;14.00;;;;;;;;5452498;26;10401;-81
2024/04/18 08:57:20;;;;;;;;;16.00;14.25;;;;;;;;5453154;26;10454;-82
2024/04/18 08:59:50;;;;;;;;;13.75;13.75;;;;;;;;5452887;26;10374;-82
2024/04/18 09:02:23;;;;;;;;;12.75;12.75;;;;;;;;5452170;26;10248;-79
2024/04/18 09:04:52;;;;;;;;;14.25;12.50;;;;;;;;5452505;26;10581;-81
2024/04/18 09:07:21;;;;;;;;;13.00;13.00;;;;;;;;5451963;26;10312;-80
2024/04/18 09:09:53;;;;;;;;;16.25;15.50;;;;;;;;5447884;26;10613;-78
2024/04/18 09:12:22;;;;;;;;;13.25;11.50;;;;;;;;5451011;26;10507;-79
2024/04/18 09:14:51;;;;;;;;;14.00;14.00;;;;;;;;5450040;26;11094;-78
2024/04/18 09:17:22;;;;;;;;;15.00;15.00;;;;;;;;5450245;26;10208;-79
2024/04/18 09:19:54;;;;;;;;;14.00;14.00;;;;;;;;5479644;26;10093;-77
2024/04/18 09:22:23;;;;;;;;;12.00;9.75;;;;;;;;5471732;26;9940;-78
2024/04/18 09:24:52;;;;;;;;;10.25;10.25;;;;;;;;5478285;26;10636;-78
2024/04/18 09:27:21;;;;;;;;;15.25;15.25;;;;;;;;5471017;26;9788;-77
2024/04/18 09:29:48;;;;;;;;;13.00;13.00;;;;;;;;5477494;26;11105;-77
2024/04/18 09:32:17;;;;;;;;;15.50;15.50;;;;;;;;5446313;26;9446;-78
2024/04/18 09:34:52;;;;;;;;;20.00;16.50;;;;;;;;5464430;26;9586;-78
2024/04/18 09:37:22;;;;;;;;;11.25;11.25;;;;;;;;5470514;26;9815;-77
2024/04/18 09:39:54;;;;;;;;;10.50;10.50;;;;;;;;5476461;26;9634;-78
2024/04/18 09:42:36;;;;;;;;;11.00;11.00;;;;;;;;5475647;26;10329;-78
2024/04/18 09:45:14;;;;;;;;;13.75;12.75;;;;;;;;5469565;26;10441;-78
2024/04/18 09:47:44;;;;;;;;;15.50;13.00;;;;;;;;5447269;26;9768;-78
2024/04/18 09:50:16;;;;;;;;;11.25;11.25;;;;;;;;5428324;26;9440;-76
2024/04/18 09:52:50;;;;;;;;;13.25;13.25;;;;;;;;5449580;26;9644;-77
2024/04/18 09:55:22;;;;;;;;;14.00;11.25;;;;;;;;5427640;26;9629;-78
2024/04/18 09:57:52;;;;;;;;;13.50;13.50;;;;;;;;5449997;26;9639;-78
2024/04/18 10:00:23;;;;;;;;;13.50;13.50;;;;;;;;5448052;26;9831;-78
2024/04/18 10:02:53;;;;;;;;;18.25;17.00;;;;;;;;5450446;26;9749;-79
2024/04/18 10:05:25;;;;;;;;;9.00;9.00;;;;;;;;5449916;26;9679;-79
2024/04/18 10:07:55;;;;;;;;;19.00;17.50;;;;;;;;5446665;26;9644;-80
2024/04/18 10:10:24;;;;;;;;;13.25;13.25;;;;;;;;5449994;26;9713;-79
2024/04/18 10:12:52;;;;;;;;;14.00;10.75;;;;;;;;5446647;26;9777;-79
2024/04/18 10:15:24;;;;;;;;;13.50;13.50;;;;;;;;5447227;26;9544;-77
2024/04/18 10:17:52;;;;;;;;;12.33;12.33;;;;;;;;5445993;26;9491;-75
2024/04/18 10:20:28;;;;;;;;;10.00;10.00;;;;;;;;5446611;26;9280;-79
2024/04/18 10:23:02;;;;;;;;;15.00;13.00;;;;;;;;5427916;26;9211;-80
2024/04/18 10:25:40;;;;;;;;;11.33;11.33;;;;;;;;5447269;26;9426;-78
2024/04/18 10:28:20;;;;;;;;;16.33;14.33;;;;;;;;5447134;26;9213;-79
2024/04/18 10:30:50;;;;;;;;;8.75;8.75;;;;;;;;5444465;26;9179;-78
2024/04/18 10:33:19;;;;;;;;;13.00;11.00;;;;;;;;5447687;26;8839;-79
2024/04/18 10:35:51;;;;;;;;;12.75;10.50;;;;;;;;5447422;26;8929;-81
2024/04/18 10:38:29;;;;;;;;;7.67;7.67;;;;;;;;5456226;26;8860;-80
2024/04/18 10:41:04;;;;;;;;;9.50;9.25;;;;;;;;5460484;26;9043;-80
2024/04/18 10:43:33;;;;;;;;;9.33;9.33;;;;;;;;5458986;26;8836;-78
2024/04/18 10:46:06;;;;;;;;;9.00;9.00;;;;;;;;5467452;26;9870;-79
2024/04/18 10:48:35;;;;;;;;;8.00;8.00;;;;;;;;5455166;26;9458;-80
2024/04/18 10:51:07;;;;;;;;;8.50;8.00;;;;;;;;5462096;26;8860;-85
2024/04/18 10:53:37;;;;;;;;;6.75;6.50;;;;;;;;5478371;26;8854;-78
2024/04/18 10:56:14;;;;;;;;;8.50;6.25;;;;;;;;5461280;26;8882;-79
2024/04/18 10:58:43;;;;;;;;;8.00;8.00;;;;;;;;5479215;26;8862;-77
2024/04/18 11:01:19;;;;;;;;;8.00;8.00;;;;;;;;5465173;26;9632;-77
2024/04/18 11:03:54;;;;;;;;;6.25;6.25;;;;;;;;5467653;26;8800;-77
2024/04/18 11:06:25;;;;;;;;;8.00;8.00;;;;;;;;5462815;26;8860;-78
2024/04/18 11:08:54;;;;;;;;;5.00;5.00;;;;;;;;5471775;26;8820;-80
2024/04/18 11:11:27;;;;;;;;;8.25;6.50;;;;;;;;5458913;26;8847;-79
2024/04/18 11:13:56;;;;;;;;;9.00;9.00;;;;;;;;5470369;26;8828;-80
2024/04/18 11:16:26;;;;;;;;;7.50;7.50;;;;;;;;5462364;26;8848;-80
2024/04/18 11:18:55;;;;;;;;;9.50;6.50;;;;;;;;5468918;26;8863;-79
2024/04/18 11:21:27;;;;;;;;;8.50;8.50;;;;;;;;5464025;26;8870;-79
2024/04/18 11:23:58;;;;;;;;;6.00;6.00;;;;;;;;5456440;26;8812;-79
2024/04/18 11:26:31;;;;;;;;;8.25;7.00;;;;;;;;5466866;26;8851;-80
2024/04/18 11:29:00;;;;;;;;;8.50;7.00;;;;;;;;5465061;26;8840;-78
2024/04/18 11:31:29;;;;;;;;;9.00;9.00;;;;;;;;5468490;26;8761;-81
2024/04/18 11:33:58;;;;;;;;;8.00;7.00;;;;;;;;5451494;26;8873;-80
2024/04/18 11:36:35;;;;;;;;;8.50;8.50;;;;;;;;5473854;26;8835;-81
2024/04/18 11:39:04;;;;;;;;;10.50;9.25;;;;;;;;5451718;26;8844;-80
2024/04/18 11:41:37;;;;;;;;;10.00;10.00;;;;;;;;5467692;26;8972;-81
2024/04/18 11:44:12;;;;;;;;;8.00;7.50;;;;;;;;5463612;26;8894;-81
2024/04/18 11:46:41;;;;;;;;;6.75;6.75;;;;;;;;5464776;26;8906;-82
2024/04/18 11:49:16;;;;;;;;;6.00;6.00;;;;;;;;5467175;26;8848;-81
2024/04/18 11:51:48;;;;;;;;;9.25;8.00;;;;;;;;5453264;26;8832;-80
2024/04/18 11:54:17;;;;;;;;;7.75;6.00;;;;;;;;5450386;26;8860;-79
2024/04/18 11:56:45;;;;;;;;;7.00;7.00;;;;;;;;5448081;26;8820;-80
2024/04/18 11:59:16;;;;;;;;;9.50;7.75;;;;;;;;5449211;26;8891;-79
2024/04/18 12:01:45;;;;;;;;;8.00;8.00;;;;;;;;5449947;26;8824;-79
2024/04/18 12:04:14;;;;;;;;;7.50;7.50;;;;;;;;5451214;26;8895;-80
2024/04/18 12:06:43;;;;;;;;;5.50;5.50;;;;;;;;5452029;26;8823;-79
2024/04/18 12:09:15;;;;;;;;;8.25;8.25;;;;;;;;5454419;26;8840;-80
2024/04/18 12:11:43;;;;;;;;;9.25;7.00;;;;;;;;5451026;26;8832;-79
2024/04/18 12:14:12;;;;;;;;;7.25;6.75;;;;;;;;5451250;26;8842;-80
2024/04/18 12:16:41;;;;;;;;;8.25;8.25;;;;;;;;5450736;26;8844;-79
2024/04/18 12:19:13;;;;;;;;;9.00;9.00;;;;;;;;5451975;26;8808;-85
2024/04/18 12:21:45;;;;;;;;;8.50;8.50;;;;;;;;5469365;26;8815;-82
2024/04/18 12:24:17;;;;;;;;;8.75;8.75;;;;;;;;5460630;26;8836;-80
2024/04/18 12:26:46;;;;;;;;;8.25;7.25;;;;;;;;5470871;26;8872;-82
2024/04/18 12:29:15;;;;;;;;;7.00;7.00;;;;;;;;5458628;26;8921;-82
2024/04/18 12:31:45;;;;;;;;;7.50;7.50;;;;;;;;5440358;26;9608;-83
2024/04/18 12:34:13;;;;;;;;;9.75;9.75;;;;;;;;5461354;26;8939;-83
2024/04/18 12:36:40;;;;;;;;;11.50;8.75;;;;;;;;5452077;26;8842;-83
2024/04/18 12:39:11;;;;;;;;;10.00;10.00;;;;;;;;5455476;26;8816;-83
2024/04/18 12:41:42;;;;;;;;;7.75;7.75;;;;;;;;5455161;26;8824;-83
2024/04/18 12:44:14;;;;;;;;;8.75;8.75;;;;;;;;5450289;26;8866;-79
2024/04/18 12:46:45;;;;;;;;;11.75;11.75;;;;;;;;5452380;26;8874;-80
2024/04/18 12:49:14;;;;;;;;;5.50;5.50;;;;;;;;5448694;26;8855;-79
2024/04/18 12:51:40;;;;;;;;;8.00;8.00;;;;;;;;5448970;26;8891;-80
2024/04/18 12:54:10;;;;;;;;;7.00;7.00;;;;;;;;5448832;26;8832;-79
2024/04/18 12:56:47;;;;;;;;;7.25;7.25;;;;;;;;5447910;26;8836;-79
2024/04/18 12:59:19;;;;;;;;;8.00;7.75;;;;;;;;5448600;26;8832;-80
2024/04/18 13:01:48;;;;;;;;;10.00;10.00;;;;;;;;5448592;26;8796;-80
2024/04/18 13:04:17;;;;;;;;;8.00;8.00;;;;;;;;5448218;26;8898;-82
2024/04/18 13:06:46;;;;;;;;;9.25;9.25;;;;;;;;5449526;26;8862;-83
2024/04/18 13:09:15;;;;;;;;;8.75;8.75;;;;;;;;5447309;26;8859;-82
2024/04/18 13:11:47;;;;;;;;;11.75;11.75;;;;;;;;5449996;26;8836;-83
2024/04/18 13:14:18;;;;;;;;;13.75;12.00;;;;;;;;5450662;26;8870;-80
2024/04/18 13:16:52;;;;;;;;;11.25;11.25;;;;;;;;5452596;26;8844;-83
2024/04/18 13:19:24;;;;;;;;;12.75;11.25;;;;;;;;5452020;26;8862;-83
2024/04/18 13:21:52;;;;;;;;;11.00;11.00;;;;;;;;5451373;26;8903;-84
2024/04/18 13:24:24;;;;;;;;;11.75;11.75;;;;;;;;5448517;26;8839;-84
2024/04/18 13:26:56;;;;;;;;;8.50;8.50;;;;;;;;5427550;26;8852;-79
2024/04/18 13:29:27;;;;;;;;;10.00;10.00;;;;;;;;5448988;26;8831;-83
2024/04/18 13:31:57;;;;;;;;;12.75;10.75;;;;;;;;5447801;26;9668;-81
2024/04/18 13:34:27;;;;;;;;;9.50;9.50;;;;;;;;5448980;26;8879;-78
2024/04/18 13:36:56;;;;;;;;;12.00;12.00;;;;;;;;5448461;26;8867;-79
2024/04/18 13:39:25;;;;;;;;;9.75;9.75;;;;;;;;5448584;26;8844;-79
2024/04/18 13:41:57;;;;;;;;;8.50;8.50;;;;;;;;5448435;26;8840;-79
2024/04/18 13:44:25;;;;;;;;;11.25;11.25;;;;;;;;5447872;26;8913;-79
2024/04/18 13:46:54;;;;;;;;;10.25;10.25;;;;;;;;5447425;26;8858;-79
2024/04/18 13:49:25;;;;;;;;;9.25;9.25;;;;;;;;5447486;26;8852;-78
2024/04/18 13:52:05;;;;;;;;;14.00;13.50;;;;;;;;5450418;26;8812;-82
2024/04/18 13:54:33;;;;;;;;;11.25;11.25;;;;;;;;5449832;26;8848;-82
2024/04/18 13:57:09;;;;;;;;;13.00;13.00;;;;;;;;5448536;26;8848;-81
2024/04/18 13:59:35;;;;;;;;;11.25;11.25;;;;;;;;5449905;26;8867;-78
2024/04/18 14:02:04;;;;;;;;;11.75;11.75;;;;;;;;5449499;26;8791;-79
2024/04/18 14:04:33;;;;;;;;;15.25;15.25;;;;;;;;5443171;26;8887;-78
2024/04/18 14:07:02;;;;;;;;;13.75;13.75;;;;;;;;5433586;26;8835;-79
2024/04/18 14:09:36;;;;;;;;;12.25;12.25;;;;;;;;5448394;26;8851;-81
2024/04/18 14:12:08;;;;;;;;;11.75;11.75;;;;;;;;5448706;26;8843;-79
2024/04/18 14:14:37;;;;;;;;;10.75;10.75;;;;;;;;5447087;26;8781;-81
2024/04/18 14:19:54;;;;;;;;;7.25;7.25;;;;;;;;5455840;26;8796;-83
2024/04/18 14:22:23;;;;;;;;;11.25;11.25;;;;;;;;5455976;26;8781;-83
2024/04/18 14:24:52;;;;;;;;;14.00;14.00;;;;;;;;5460247;26;8856;-82
2024/04/18 14:27:24;;;;;;;;;12.75;12.75;;;;;;;;5454540;26;8821;-82
2024/04/18 14:29:53;;;;;;;;;14.00;14.00;;;;;;;;5468535;26;8907;-80
2024/04/18 14:32:22;;;;;;;;;15.00;15.00;;;;;;;;5482153;26;8773;-78
2024/04/18 14:34:50;;;;;;;;;16.25;16.25;;;;;;;;5462747;26;8840;-80
2024/04/18 14:37:20;;;;;;;;;14.50;14.50;;;;;;;;5473175;26;8840;-80
2024/04/18 14:39:49;;;;;;;;;9.25;9.25;;;;;;;;5475410;26;8855;-83
2024/04/18 14:42:18;;;;;;;;;11.50;11.25;;;;;;;;5465597;26;8966;-80
2024/04/18 14:44:52;;;;;;;;;11.25;11.25;;;;;;;;5450693;26;8832;-82
2024/04/18 14:47:21;;;;;;;;;10.00;10.00;;;;;;;;5450515;26;8895;-82
2024/04/18 14:49:54;;;;;;;;;8.75;8.75;;;;;;;;5465366;26;8852;-79
2024/04/18 14:52:23;;;;;;;;;11.50;11.50;;;;;;;;5450137;26;8872;-79
2024/04/18 14:54:52;;;;;;;;;9.00;9.00;;;;;;;;5450198;26;8816;-79
2024/04/18 14:57:21;;;;;;;;;10.25;10.25;;;;;;;;5450547;26;9749;-80
2024/04/18 14:59:53;;;;;;;;;11.00;11.00;;;;;;;;5452500;26;8824;-79